createdAt,value
2023-02-23T00:00:28.372Z,97944.25
2023-02-23T00:05:35.857Z,97936.78
2023-02-23T00:10:39.067Z,97939.03
2023-02-23T00:15:40.990Z,97939.31
2023-02-23T00:20:48.553Z,97930.25
2023-02-23T00:25:50.376Z,97933.00
2023-02-23T00:30:52.615Z,97932.34
2023-02-23T00:35:55.603Z,97924.75
2023-02-23T00:40:57.395Z,97931.84
2023-02-23T00:45:59.262Z,97940.38
2023-02-23T00:51:05.946Z,97936.03
2023-02-23T00:56:12.127Z,97935.38
2023-02-23T01:01:15.142Z,97937.16
2023-02-23T01:06:17.939Z,97934.56
2023-02-23T01:11:23.177Z,97932.13
2023-02-23T01:16:28.420Z,97929.56
2023-02-23T01:21:33.098Z,97935.53
2023-02-23T01:26:38.054Z,97927.94
2023-02-23T01:31:43.478Z,97925.34
2023-02-23T01:36:45.624Z,97923.72
2023-02-23T01:41:48.669Z,97915.03
2023-02-23T01:46:50.675Z,97921.00
2023-02-23T01:52:15.994Z,97911.47
2023-02-23T01:57:22.247Z,97901.16
2023-02-23T02:02:33.526Z,97889.88
2023-02-23T02:07:39.742Z,97888.09
2023-02-23T02:12:44.924Z,97881.00
2023-02-23T02:18:09.571Z,97880.84
2023-02-23T02:23:42.341Z,97873.09
2023-02-23T02:28:59.694Z,97878.41
2023-02-23T02:34:02.648Z,97875.69
2023-02-23T02:39:35.977Z,97879.88
2023-02-23T02:45:07.763Z,97881.50
2023-02-23T02:50:24.879Z,97873.59
2023-02-23T02:55:34.139Z,97870.06
2023-02-23T03:00:56.194Z,97865.03
2023-02-23T03:06:17.887Z,97858.41
2023-02-23T03:11:38.197Z,97864.38
2023-02-23T03:17:23.491Z,97851.78
2023-02-23T03:22:53.436Z,97847.88
2023-02-23T03:28:43.391Z,97844.66
2023-02-23T03:34:15.034Z,97854.03
2023-02-23T03:39:49.833Z,97859.19
2023-02-23T03:45:13.132Z,97856.09
2023-02-23T03:50:40.521Z,97854.31
2023-02-23T03:56:06.267Z,97864.34
2023-02-23T04:01:29.015Z,97859.53
2023-02-23T04:06:54.495Z,97863.72
2023-02-23T04:12:30.177Z,97870.66
2023-02-23T04:17:32.939Z,97863.44
2023-02-23T04:22:35.630Z,97872.63
2023-02-23T04:27:37.574Z,97869.25
2023-02-23T04:32:39.422Z,97866.50
2023-02-23T04:37:41.535Z,97864.88
2023-02-23T04:42:43.441Z,97871.69
2023-02-23T04:47:45.789Z,97871.53
2023-02-23T04:52:47.852Z,97866.19
2023-02-23T04:57:49.832Z,97862.16
2023-02-23T05:02:51.732Z,97861.66
2023-02-23T05:07:55.163Z,97859.53
2023-02-23T05:12:58.417Z,97860.94
2023-02-23T05:18:00.440Z,97862.53
2023-02-23T05:23:02.338Z,97864.72
2023-02-23T05:28:04.888Z,97855.00
2023-02-23T05:33:06.754Z,97875.13
2023-02-23T05:38:08.597Z,97867.03
2023-02-23T05:43:10.554Z,97879.28
2023-02-23T05:48:13.658Z,97878.47
2023-02-23T05:53:15.613Z,97878.75
2023-02-23T05:58:17.428Z,97878.25
2023-02-23T06:03:19.538Z,97883.88
2023-02-23T06:08:21.895Z,97885.13
2023-02-23T06:13:23.933Z,97891.38
2023-02-23T06:18:27.267Z,97891.84
2023-02-23T06:23:30.370Z,97896.84
2023-02-23T06:28:32.402Z,97900.25
2023-02-23T06:33:34.291Z,97903.34
2023-02-23T06:38:37.624Z,97903.03
2023-02-23T06:43:39.700Z,97909.38
2023-02-23T06:48:41.574Z,97911.19
2023-02-23T06:53:43.324Z,97906.09
2023-02-23T06:58:46.751Z,97909.56
2023-02-23T07:03:48.811Z,97918.31
2023-02-23T07:08:50.711Z,97915.94
2023-02-23T07:13:52.647Z,97909.19
2023-02-23T07:18:55.707Z,97910.88
2023-02-23T07:23:58.339Z,97904.13
2023-02-23T07:29:00.767Z,97908.38
2023-02-23T07:34:02.669Z,97912.47
2023-02-23T07:39:05.251Z,97908.50
2023-02-23T07:44:07.347Z,97925.50
2023-02-23T07:49:09.547Z,97921.97
2023-02-23T07:54:11.473Z,97922.34
2023-02-23T08:00:37.162Z,97920.72
2023-02-23T08:05:40.147Z,97925.59
2023-02-23T08:10:42.252Z,97926.59
2023-02-23T08:15:44.236Z,97920.94
2023-02-23T08:20:47.025Z,97932.91
2023-02-23T08:25:49.133Z,97934.38
2023-02-23T08:30:51.066Z,97931.63
2023-02-23T08:35:53.737Z,97931.00
2023-02-23T08:40:55.570Z,97928.91
2023-02-23T08:45:57.738Z,97930.69
2023-02-23T08:51:00.051Z,97943.00
2023-02-23T08:56:06.154Z,97935.25
2023-02-23T09:01:08.641Z,97938.50
2023-02-23T09:06:15.394Z,97936.88
2023-02-23T09:11:17.868Z,97935.41
2023-02-23T09:16:20.467Z,97940.59
2023-02-23T09:21:25.506Z,97935.75
2023-02-23T09:26:29.593Z,97938.19
2023-02-23T09:31:31.507Z,97935.28
2023-02-23T09:36:33.470Z,97934.81
2023-02-23T09:41:35.440Z,97940.13
2023-02-23T09:46:53.868Z,97947.72
2023-02-23T09:51:59.210Z,97936.50
2023-02-23T09:57:04.961Z,97929.34
2023-02-23T10:02:21.486Z,97937.28
2023-02-23T10:07:53.004Z,97935.13
2023-02-23T10:13:59.231Z,97937.72
2023-02-23T10:19:08.105Z,97935.28
2023-02-23T10:24:18.152Z,97926.66
2023-02-23T10:29:39.550Z,97924.94
2023-02-23T10:34:43.014Z,97925.19
2023-02-23T10:39:45.329Z,97925.13
2023-02-23T10:44:48.224Z,97926.66
2023-02-23T10:49:52.495Z,97926.88
2023-02-23T10:54:55.450Z,97919.66
2023-02-23T11:00:07.132Z,97911.47
2023-02-23T11:05:51.450Z,97901.91
2023-02-23T11:11:02.420Z,97906.25
2023-02-23T11:16:14.098Z,97882.25
2023-02-23T11:21:27.136Z,97885.41
2023-02-23T11:26:36.239Z,97881.00
2023-02-23T11:31:40.872Z,97872.19
2023-02-23T11:36:42.950Z,97868.34
2023-02-23T11:41:44.768Z,97859.00
2023-02-23T11:46:47.073Z,97851.00
2023-02-23T11:51:52.317Z,97861.59
2023-02-23T11:56:55.599Z,97853.97
2023-02-23T12:02:19.272Z,97851.91
2023-02-23T12:07:31.665Z,97850.31
2023-02-23T12:12:51.112Z,97847.44
2023-02-23T12:18:04.779Z,97839.81
2023-02-23T12:23:12.586Z,97836.06
2023-02-23T12:28:27.240Z,97830.91
2023-02-23T12:33:39.406Z,97836.19
2023-02-23T12:39:10.098Z,97829.63
2023-02-23T12:44:34.583Z,97831.69
2023-02-23T12:49:39.760Z,97831.69
2023-02-23T12:54:44.036Z,97822.09
2023-02-23T12:59:51.778Z,97809.69
2023-02-23T13:05:27.098Z,97815.53
2023-02-23T13:10:46.302Z,97812.38
2023-02-23T13:15:59.393Z,97805.00
2023-02-23T13:21:04.360Z,97803.00
2023-02-23T13:26:10.986Z,97805.19
2023-02-23T13:31:41.311Z,97806.97
2023-02-23T13:36:46.012Z,97799.53
2023-02-23T13:42:16.290Z,97810.50
2023-02-23T13:47:36.476Z,97808.81
2023-02-23T13:52:42.605Z,97806.34
2023-02-23T13:57:44.416Z,97815.69
2023-02-23T14:02:46.966Z,97809.41
2023-02-23T14:08:04.740Z,97801.00
2023-02-23T14:13:18.264Z,97806.19
2023-02-23T14:18:26.305Z,97805.75
2023-02-23T14:23:50.708Z,97806.94
2023-02-23T14:29:26.020Z,97795.47
2023-02-23T14:34:54.197Z,97797.81
2023-02-23T14:40:02.005Z,97800.94
2023-02-23T14:45:17.669Z,97803.56
2023-02-23T14:50:31.492Z,97802.47
2023-02-23T14:55:37.897Z,97803.03
2023-02-23T15:00:42.668Z,97799.00
2023-02-23T15:05:52.860Z,97798.56
2023-02-23T15:11:13.626Z,97796.13
2023-02-23T15:16:23.194Z,97798.06
2023-02-23T15:21:25.164Z,97794.03
2023-02-23T15:26:36.865Z,97796.03
2023-02-23T15:31:41.102Z,97787.97
2023-02-23T15:36:47.203Z,97784.91
2023-02-23T15:41:50.007Z,97793.69
2023-02-23T15:47:20.663Z,97799.06
2023-02-23T15:52:25.099Z,97798.00
2023-02-23T15:57:31.973Z,97802.75
2023-02-23T16:02:36.878Z,97805.06
2023-02-23T16:07:43.569Z,97803.19
2023-02-23T16:12:49.919Z,97809.72
2023-02-23T16:18:02.639Z,97806.84
2023-02-23T16:23:06.774Z,97802.03
2023-02-23T16:28:12.983Z,97801.75
2023-02-23T16:33:24.350Z,97795.13
2023-02-23T16:38:38.092Z,97793.69
2023-02-23T16:43:39.945Z,97796.81
2023-02-23T16:48:41.773Z,97792.78
2023-02-23T16:53:44.792Z,97788.75
2023-02-23T16:58:49.742Z,97795.09
2023-02-23T17:03:54.069Z,97795.28
2023-02-23T17:08:58.918Z,97802.25
2023-02-23T17:14:01.036Z,97811.03
2023-02-23T17:19:02.933Z,97805.03
2023-02-23T17:24:05.120Z,97810.22
2023-02-23T17:29:07.035Z,97807.81
2023-02-23T17:34:08.977Z,97812.19
2023-02-23T17:39:14.318Z,97818.38
2023-02-23T17:44:16.138Z,97818.38
2023-02-23T17:49:18.257Z,97811.56
2023-02-23T17:54:20.264Z,97813.16
2023-02-23T17:59:22.147Z,97807.81
2023-02-23T18:04:24.344Z,97813.81
2023-02-23T18:09:26.566Z,97811.19
2023-02-23T18:14:28.721Z,97811.38
2023-02-23T18:19:31.324Z,97802.97
2023-02-23T18:24:33.625Z,97797.13
2023-02-23T18:29:36.686Z,97785.94
2023-02-23T18:34:38.585Z,97794.09
2023-02-23T18:39:40.498Z,97789.06
2023-02-23T18:44:42.672Z,97794.44
2023-02-23T18:49:44.797Z,97793.81
2023-02-23T18:54:48.851Z,97802.56
2023-02-23T18:59:50.754Z,97800.16
2023-02-23T19:04:52.554Z,97803.72
2023-02-23T19:09:54.512Z,97792.53
2023-02-23T19:14:59.740Z,97789.94
2023-02-23T19:20:01.965Z,97792.72
2023-02-23T19:25:04.063Z,97783.31
2023-02-23T19:30:10.107Z,97787.69
2023-02-23T19:35:14.973Z,97790.47
2023-02-23T19:40:20.970Z,97785.00
2023-02-23T19:45:24.959Z,97780.16
2023-02-23T19:50:26.762Z,97778.91
2023-02-23T19:55:28.529Z,97782.00
2023-02-23T20:00:31.468Z,97776.38
2023-02-23T20:05:42.454Z,97767.13
2023-02-23T20:10:45.520Z,97771.88
2023-02-23T20:15:47.425Z,97766.69
2023-02-23T20:20:49.376Z,97758.25
2023-02-23T20:25:52.615Z,97758.25
2023-02-23T20:30:54.720Z,97756.66
2023-02-23T20:35:57.441Z,97758.63
2023-02-23T20:41:03.089Z,97757.19
2023-02-23T20:46:06.394Z,97757.34
2023-02-23T20:51:13.091Z,97742.16
2023-02-23T20:56:17.871Z,97733.75
2023-02-23T21:01:23.828Z,97734.91
2023-02-23T21:06:27.875Z,97731.50
2023-02-23T21:11:31.402Z,97734.09
2023-02-23T21:16:33.313Z,97735.72
2023-02-23T21:21:44.379Z,97734.09
2023-02-23T21:26:46.663Z,97727.13
2023-02-23T21:31:52.335Z,97725.97
2023-02-23T21:36:59.370Z,97725.78
2023-02-23T21:42:01.299Z,97721.41
2023-02-23T21:47:07.147Z,97705.06
2023-02-23T21:52:10.022Z,97701.66
2023-02-23T21:57:11.873Z,97702.63
2023-02-23T22:02:13.734Z,97696.63
2023-02-23T22:07:17.000Z,97699.41
2023-02-23T22:12:18.872Z,97705.56
2023-02-23T22:17:20.804Z,97701.38
2023-02-23T22:22:23.144Z,97702.69
2023-02-23T22:27:25.091Z,97705.97
2023-02-23T22:32:27.430Z,97694.66
2023-02-23T22:37:31.695Z,97695.00
2023-02-23T22:42:35.520Z,97700.19
2023-02-23T22:47:37.696Z,97693.75
2023-02-23T22:52:40.968Z,97685.84
2023-02-23T22:57:43.166Z,97682.34
2023-02-23T23:02:45.117Z,97680.25
2023-02-23T23:07:47.729Z,97671.84
2023-02-23T23:12:49.830Z,97674.63
2023-02-23T23:17:51.719Z,97681.59
2023-02-23T23:22:53.692Z,97679.34
2023-02-23T23:27:55.825Z,97670.47
2023-02-23T23:32:58.095Z,97676.44
2023-02-23T23:38:03.158Z,97674.03
2023-02-23T23:43:07.904Z,97673.84
2023-02-23T23:48:09.941Z,97669.81
2023-02-23T23:53:11.929Z,97664.00
2023-02-23T23:58:18.450Z,97658.03
